createdAt,value
2023-02-17T00:00:40.079Z,41.20
2023-02-17T00:03:09.533Z,42.85
2023-02-17T00:05:41.633Z,42.97
2023-02-17T00:08:11.234Z,40.88
2023-02-17T00:10:43.310Z,43.67
2023-02-17T00:13:12.748Z,43.47
2023-02-17T00:15:42.309Z,42.38
2023-02-17T00:18:11.844Z,38.55
2023-02-17T00:20:41.402Z,43.75
2023-02-17T00:23:11.033Z,41.80
2023-02-17T00:25:45.899Z,39.85
2023-02-17T00:28:15.345Z,41.05
2023-02-17T00:30:44.892Z,41.70
2023-02-17T00:33:14.397Z,43.72
2023-02-17T00:35:44.287Z,41.85
2023-02-17T00:38:13.791Z,42.70
2023-02-17T00:40:46.089Z,41.05
2023-02-17T00:43:15.800Z,42.13
2023-02-17T00:45:45.303Z,41.25
2023-02-17T00:48:14.836Z,44.03
2023-02-17T00:50:44.385Z,44.30
2023-02-17T00:53:13.848Z,43.30
2023-02-17T00:55:45.931Z,44.80
2023-02-17T00:58:15.423Z,44.92
2023-02-17T01:00:45.001Z,44.70
2023-02-17T01:03:14.464Z,43.25
2023-02-17T01:05:44.502Z,40.53
2023-02-17T01:08:14.152Z,42.45
2023-02-17T01:10:47.347Z,41.10
2023-02-17T01:13:17.283Z,45.42
2023-02-17T01:15:49.000Z,43.72
2023-02-17T01:18:18.552Z,40.63
2023-02-17T01:20:48.094Z,41.08
2023-02-17T01:23:17.670Z,41.35
2023-02-17T01:25:50.792Z,41.30
2023-02-17T01:28:22.377Z,40.53
2023-02-17T01:30:52.143Z,40.60
2023-02-17T01:33:21.581Z,39.28
2023-02-17T01:35:51.132Z,38.17
2023-02-17T01:38:20.653Z,42.03
2023-02-17T01:40:52.923Z,41.05
2023-02-17T01:43:28.754Z,40.95
2023-02-17T01:45:59.117Z,42.63
2023-02-17T01:48:29.652Z,41.33
2023-02-17T01:51:02.559Z,39.38
2023-02-17T01:53:34.421Z,37.83
2023-02-17T01:56:06.864Z,40.53
2023-02-17T01:58:36.614Z,38.30
2023-02-17T02:01:06.516Z,38.95
2023-02-17T02:03:36.506Z,38.90
2023-02-17T02:06:07.916Z,37.72
2023-02-17T02:08:41.498Z,38.75
2023-02-17T02:11:13.559Z,38.45
2023-02-17T02:13:43.002Z,40.72
2023-02-17T02:16:15.758Z,37.97
2023-02-17T02:18:50.285Z,40.97
2023-02-17T02:21:52.053Z,37.35
2023-02-17T02:24:28.009Z,35.65
2023-02-17T02:27:32.306Z,35.38
2023-02-17T02:30:31.799Z,35.15
2023-02-17T02:33:06.863Z,33.15
2023-02-17T02:35:39.823Z,34.92
2023-02-17T02:38:12.375Z,36.95
2023-02-17T02:40:43.874Z,35.22
2023-02-17T02:43:15.170Z,32.15
2023-02-17T02:45:44.783Z,29.77
2023-02-17T02:48:16.864Z,26.83
2023-02-17T02:51:03.862Z,25.73
2023-02-17T02:53:58.783Z,24.98
2023-02-17T02:56:38.833Z,25.83
2023-02-17T02:59:13.096Z,24.38
2023-02-17T03:01:46.754Z,25.92
2023-02-17T03:04:21.625Z,23.30
2023-02-17T03:06:52.035Z,24.63
2023-02-17T03:09:23.877Z,26.67
2023-02-17T03:11:53.389Z,23.17
2023-02-17T03:14:23.459Z,23.52
2023-02-17T03:16:55.748Z,23.25
2023-02-17T03:19:27.948Z,21.35
2023-02-17T03:21:58.981Z,22.77
2023-02-17T03:26:57.717Z,20.45
2023-02-17T03:29:27.294Z,21.83
2023-02-17T03:31:56.835Z,24.13
2023-02-17T03:34:28.963Z,22.50
2023-02-17T03:37:01.131Z,22.30
2023-02-17T03:39:31.639Z,23.63
2023-02-17T03:42:02.248Z,23.23
2023-02-17T03:44:31.722Z,22.52
2023-02-17T03:47:01.194Z,21.05
2023-02-17T03:49:33.246Z,21.38
2023-02-17T03:52:02.725Z,21.63
2023-02-17T03:54:34.170Z,19.05
2023-02-17T03:57:03.867Z,18.95
2023-02-17T03:59:33.366Z,20.83
2023-02-17T04:02:02.804Z,18.65
2023-02-17T04:04:36.313Z,20.00
2023-02-17T04:07:05.832Z,20.55
2023-02-17T04:09:35.320Z,19.23
2023-02-17T04:12:04.788Z,19.25
2023-02-17T04:14:34.266Z,16.85
2023-02-17T04:17:03.687Z,17.95
2023-02-17T04:19:35.722Z,18.05
2023-02-17T04:22:08.900Z,15.93
2023-02-17T04:24:38.722Z,16.75
2023-02-17T04:27:09.018Z,16.50
2023-02-17T04:29:38.485Z,17.20
2023-02-17T04:32:07.972Z,17.15
2023-02-17T04:34:40.181Z,16.55
2023-02-17T04:37:09.634Z,15.57
2023-02-17T04:39:39.145Z,15.18
2023-02-17T04:42:08.762Z,15.98
2023-02-17T04:44:38.211Z,14.73
2023-02-17T04:47:07.754Z,14.00
2023-02-17T04:49:39.816Z,14.25
2023-02-17T04:52:09.249Z,12.63
2023-02-17T04:54:39.102Z,13.00
2023-02-17T04:57:08.565Z,15.55
2023-02-17T04:59:38.170Z,14.93
2023-02-17T05:02:07.653Z,14.27
2023-02-17T05:04:39.695Z,13.50
2023-02-17T05:07:09.248Z,13.82
2023-02-17T05:09:38.745Z,13.63
2023-02-17T05:12:08.361Z,13.40
2023-02-17T05:14:38.002Z,14.85
2023-02-17T05:17:07.431Z,16.27
2023-02-17T05:19:37.075Z,15.15
2023-02-17T05:22:09.096Z,14.25
2023-02-17T05:24:38.999Z,12.98
2023-02-17T05:27:08.515Z,14.50
2023-02-17T05:29:38.029Z,13.52
2023-02-17T05:32:07.523Z,13.90
2023-02-17T05:34:37.051Z,13.20
2023-02-17T05:37:09.102Z,11.32
2023-02-17T05:39:38.577Z,11.70
2023-02-17T05:42:08.184Z,10.75
2023-02-17T05:44:37.709Z,11.27
2023-02-17T05:47:07.323Z,10.02
2023-02-17T05:49:36.775Z,9.80
2023-02-17T05:52:08.829Z,8.70
2023-02-17T05:54:38.241Z,8.35
2023-02-17T05:57:07.701Z,9.27
2023-02-17T05:59:37.158Z,8.25
2023-02-17T06:02:06.716Z,8.18
2023-02-17T06:04:36.280Z,8.43
2023-02-17T06:07:05.780Z,8.25
2023-02-17T06:09:37.826Z,8.45
2023-02-17T06:12:08.032Z,8.00
2023-02-17T06:14:37.495Z,7.13
2023-02-17T06:17:06.960Z,8.05
2023-02-17T06:19:36.436Z,7.95
2023-02-17T06:22:05.902Z,8.30
2023-02-17T06:24:37.944Z,7.22
2023-02-17T06:27:07.403Z,7.25
2023-02-17T06:29:36.964Z,6.38
2023-02-17T06:32:06.587Z,7.55
2023-02-17T06:34:36.057Z,7.35
2023-02-17T06:37:05.520Z,7.22
2023-02-17T06:39:37.789Z,7.10
2023-02-17T06:42:07.337Z,7.88
2023-02-17T06:44:36.803Z,7.32
2023-02-17T06:47:06.354Z,6.80
2023-02-17T06:49:35.839Z,7.55
2023-02-17T06:52:05.277Z,8.10
2023-02-17T06:54:34.738Z,7.28
2023-02-17T06:57:06.760Z,7.25
2023-02-17T06:59:36.233Z,6.60
2023-02-17T07:02:05.822Z,6.45
2023-02-17T07:04:35.473Z,7.68
2023-02-17T07:07:04.894Z,6.90
2023-02-17T07:09:34.402Z,6.97
2023-02-17T07:12:06.821Z,7.05
2023-02-17T07:14:36.775Z,6.80
2023-02-17T07:17:06.253Z,6.07
2023-02-17T07:19:35.751Z,9.07
2023-02-17T07:22:05.260Z,6.95
2023-02-17T07:24:35.067Z,7.30
2023-02-17T07:27:10.616Z,8.13
2023-02-17T07:29:40.381Z,7.53
2023-02-17T07:32:09.911Z,7.40
2023-02-17T07:34:40.245Z,9.20
2023-02-17T07:37:10.414Z,7.15
2023-02-17T07:39:39.895Z,9.40
2023-02-17T07:42:12.751Z,7.90
2023-02-17T07:44:42.245Z,7.72
2023-02-17T07:47:11.682Z,8.60
2023-02-17T07:49:41.156Z,8.88
2023-02-17T07:52:10.657Z,8.52
2023-02-17T07:54:40.203Z,9.90
2023-02-17T07:57:12.238Z,8.70
2023-02-17T07:59:41.732Z,8.90
2023-02-17T08:02:12.903Z,8.77
2023-02-17T08:04:42.414Z,9.18
2023-02-17T08:07:11.865Z,10.43
2023-02-17T08:10:05.683Z,9.75
2023-02-17T08:13:05.261Z,10.90
2023-02-17T08:15:35.918Z,10.85
2023-02-17T08:18:06.496Z,9.75
2023-02-17T08:20:36.004Z,10.63
2023-02-17T08:23:06.467Z,9.90
2023-02-17T08:25:36.419Z,9.73
2023-02-17T08:28:09.252Z,10.32
2023-02-17T08:30:39.236Z,9.43
2023-02-17T08:33:08.867Z,10.30
2023-02-17T08:35:38.369Z,10.13
2023-02-17T08:38:07.850Z,9.32
2023-02-17T08:40:37.368Z,9.45
2023-02-17T08:43:09.891Z,9.32
2023-02-17T08:45:39.375Z,10.70
2023-02-17T08:48:09.030Z,12.45
2023-02-17T08:50:38.526Z,10.40
2023-02-17T08:53:07.974Z,10.63
2023-02-17T08:55:48.580Z,9.85
2023-02-17T09:00:50.475Z,9.45
2023-02-17T09:03:19.938Z,10.90
2023-02-17T09:05:50.546Z,10.98
2023-02-17T09:08:20.667Z,9.95
2023-02-17T09:10:50.368Z,10.35
2023-02-17T09:13:22.616Z,9.00
2023-02-17T09:15:54.068Z,9.80
2023-02-17T09:18:23.857Z,9.50
2023-02-17T09:20:53.410Z,9.23
2023-02-17T09:23:23.146Z,9.05
2023-02-17T09:25:52.615Z,9.07
2023-02-17T09:28:24.715Z,8.65
2023-02-17T09:30:54.399Z,8.75
2023-02-17T09:33:25.751Z,9.15
2023-02-17T09:35:56.337Z,8.88
2023-02-17T09:38:25.941Z,8.23
2023-02-17T09:40:55.427Z,7.80
2023-02-17T09:43:29.490Z,7.75
2023-02-17T09:46:00.965Z,7.93
2023-02-17T09:48:31.544Z,9.30
2023-02-17T09:51:02.697Z,5.97
2023-02-17T09:56:05.099Z,7.35
2023-02-17T09:58:39.328Z,9.05
2023-02-17T10:01:12.172Z,7.95
2023-02-17T10:03:42.973Z,4.65
2023-02-17T10:06:15.991Z,5.18
2023-02-17T10:08:49.652Z,5.07
2023-02-17T10:11:23.236Z,4.35
2023-02-17T10:13:55.569Z,4.78
2023-02-17T10:16:26.935Z,3.72
2023-02-17T10:18:59.484Z,4.97
2023-02-17T10:21:30.796Z,4.20
2023-02-17T10:24:00.424Z,4.53
2023-02-17T10:26:45.308Z,3.80
2023-02-17T10:29:23.915Z,3.97
2023-02-17T10:31:57.658Z,4.40
2023-02-17T10:34:38.280Z,4.03
2023-02-17T10:37:09.157Z,3.35
2023-02-17T10:39:46.802Z,3.90
2023-02-17T10:42:19.828Z,2.75
2023-02-17T10:44:52.117Z,3.53
2023-02-17T10:47:21.661Z,3.40
2023-02-17T10:49:53.105Z,3.53
2023-02-17T10:52:24.951Z,4.15
2023-02-17T10:54:57.672Z,5.13
2023-02-17T10:57:27.612Z,3.58
2023-02-17T10:59:59.746Z,3.80
2023-02-17T11:02:38.240Z,3.13
2023-02-17T11:05:08.851Z,3.85
2023-02-17T11:07:39.438Z,3.55
2023-02-17T11:10:25.661Z,6.82
2023-02-17T11:12:56.034Z,3.15
2023-02-17T11:15:29.986Z,3.90
2023-02-17T11:17:59.685Z,3.72
2023-02-17T11:20:32.373Z,4.10
2023-02-17T11:23:11.056Z,3.75
2023-02-17T11:25:40.624Z,3.83
2023-02-17T11:28:14.186Z,3.10
2023-02-17T11:30:54.656Z,3.72
2023-02-17T11:33:26.128Z,3.45
2023-02-17T11:35:56.024Z,4.22
2023-02-17T11:38:27.145Z,2.72
2023-02-17T11:43:28.634Z,3.17
2023-02-17T11:48:55.151Z,2.50
2023-02-17T11:51:26.162Z,3.20
2023-02-17T11:56:33.504Z,3.33
2023-02-17T11:59:11.268Z,3.63
2023-02-17T12:01:58.999Z,3.70
2023-02-17T12:04:29.373Z,3.00
2023-02-17T12:07:19.169Z,3.10
2023-02-17T12:09:59.088Z,3.55
2023-02-17T12:12:32.828Z,3.22
2023-02-17T12:15:06.613Z,3.72
2023-02-17T12:17:45.876Z,3.40
2023-02-17T12:20:29.018Z,2.83
2023-02-17T12:23:03.804Z,2.55
2023-02-17T12:25:34.281Z,2.58
2023-02-17T12:28:12.028Z,3.45
2023-02-17T12:30:50.094Z,3.70
2023-02-17T12:33:33.882Z,2.10
2023-02-17T12:36:05.469Z,2.50
2023-02-17T12:38:36.260Z,2.90
2023-02-17T12:41:08.396Z,2.00
2023-02-17T12:43:40.783Z,3.33
2023-02-17T12:46:16.554Z,2.45
2023-02-17T12:48:50.153Z,2.58
2023-02-17T12:51:21.876Z,2.60
2023-02-17T12:53:53.223Z,1.70
2023-02-17T12:56:44.202Z,2.92
2023-02-17T12:59:15.751Z,2.45
2023-02-17T13:01:57.832Z,2.45
2023-02-17T13:04:30.139Z,1.58
2023-02-17T13:07:06.107Z,3.45
2023-02-17T13:09:37.238Z,2.33
2023-02-17T13:12:17.938Z,3.72
2023-02-17T13:14:47.977Z,1.75
2023-02-17T13:17:28.770Z,2.72
2023-02-17T13:20:27.357Z,2.67
2023-02-17T13:23:10.157Z,2.60
2023-02-17T13:25:39.770Z,3.00
2023-02-17T13:28:36.243Z,1.58
2023-02-17T13:31:19.946Z,2.33
2023-02-17T13:33:51.890Z,3.40
2023-02-17T13:36:39.574Z,5.47
2023-02-17T13:39:29.502Z,3.67
2023-02-17T13:42:00.521Z,3.05
2023-02-17T13:47:09.204Z,2.60
2023-02-17T13:49:38.667Z,2.78
2023-02-17T13:52:19.719Z,2.72
2023-02-17T13:54:56.231Z,2.45
2023-02-17T13:57:28.725Z,2.17
2023-02-17T14:00:11.849Z,1.85
2023-02-17T14:02:42.075Z,2.22
2023-02-17T14:05:18.373Z,1.83
2023-02-17T14:07:53.331Z,2.85
2023-02-17T14:10:25.025Z,5.53
2023-02-17T14:12:54.638Z,3.33
2023-02-17T14:15:25.362Z,1.98
2023-02-17T14:17:54.955Z,3.00
2023-02-17T14:20:32.379Z,3.20
2023-02-17T14:23:06.569Z,3.55
2023-02-17T14:25:37.519Z,2.58
2023-02-17T14:28:07.350Z,3.30
2023-02-17T14:30:38.733Z,3.80
2023-02-17T14:33:09.017Z,3.55
2023-02-17T14:35:39.554Z,3.20
2023-02-17T14:38:23.014Z,2.70
2023-02-17T14:40:57.549Z,2.58
2023-02-17T14:43:27.389Z,1.88
2023-02-17T14:45:56.876Z,1.45
2023-02-17T14:48:27.926Z,2.30
2023-02-17T14:50:58.846Z,1.50
2023-02-17T14:53:32.757Z,4.05
2023-02-17T14:56:03.269Z,2.08
2023-02-17T14:58:32.876Z,2.63
2023-02-17T15:01:02.402Z,2.45
2023-02-17T15:03:34.808Z,2.80
2023-02-17T15:06:12.677Z,3.53
2023-02-17T15:08:45.425Z,2.42
2023-02-17T15:11:19.650Z,2.20
2023-02-17T15:13:49.298Z,2.58
2023-02-17T15:16:19.148Z,2.10
2023-02-17T15:18:54.017Z,1.65
2023-02-17T15:21:28.073Z,1.63
2023-02-17T15:24:02.586Z,2.55
2023-02-17T15:26:32.927Z,4.57
2023-02-17T15:29:02.432Z,1.42
2023-02-17T15:31:32.680Z,1.15
2023-02-17T15:34:02.809Z,1.30
2023-02-17T15:36:32.889Z,1.67
2023-02-17T15:39:05.076Z,1.83
2023-02-17T15:41:34.578Z,2.95
2023-02-17T15:44:05.813Z,2.03
2023-02-17T15:46:36.432Z,1.85
2023-02-17T15:49:05.964Z,2.50
2023-02-17T15:51:35.461Z,2.15
2023-02-17T15:54:07.685Z,2.67
2023-02-17T15:56:43.236Z,1.80
2023-02-17T15:59:15.257Z,2.80
2023-02-17T16:01:45.258Z,4.40
2023-02-17T16:04:14.924Z,2.95
2023-02-17T16:06:44.701Z,2.00
2023-02-17T16:09:16.907Z,1.95
2023-02-17T16:11:49.623Z,1.75
2023-02-17T16:14:26.046Z,1.45
2023-02-17T16:16:55.475Z,2.85
2023-02-17T16:19:24.994Z,4.10
2023-02-17T16:21:54.491Z,5.15
2023-02-17T16:24:26.567Z,2.75
2023-02-17T16:26:56.414Z,4.03
2023-02-17T16:29:25.908Z,3.42
2023-02-17T16:31:55.978Z,2.95
2023-02-17T16:34:26.279Z,6.07
2023-02-17T16:36:56.878Z,3.03
2023-02-17T16:39:28.936Z,2.85
2023-02-17T16:41:58.685Z,2.70
2023-02-17T16:44:28.141Z,2.25
2023-02-17T16:46:59.579Z,2.75
2023-02-17T16:49:32.642Z,5.40
2023-02-17T16:52:02.337Z,2.45
2023-02-17T16:54:35.691Z,2.35
2023-02-17T16:57:05.477Z,3.75
2023-02-17T16:59:34.950Z,2.70
2023-02-17T17:02:04.416Z,2.85
2023-02-17T17:04:33.940Z,2.10
2023-02-17T17:07:03.407Z,4.40
2023-02-17T17:09:35.444Z,3.03
2023-02-17T17:12:04.902Z,2.75
2023-02-17T17:14:34.391Z,5.40
2023-02-17T17:17:04.340Z,3.58
2023-02-17T17:19:33.793Z,3.60
2023-02-17T17:22:03.452Z,5.47
2023-02-17T17:24:35.476Z,5.97
2023-02-17T17:27:04.944Z,3.70
2023-02-17T17:29:34.402Z,3.15
2023-02-17T17:32:04.051Z,3.53
2023-02-17T17:34:33.513Z,3.15
2023-02-17T17:37:02.979Z,4.47
2023-02-17T17:39:35.026Z,5.03
2023-02-17T17:42:04.495Z,3.88
2023-02-17T17:44:33.982Z,3.53
2023-02-17T17:47:03.804Z,3.67
2023-02-17T17:49:33.602Z,3.17
2023-02-17T17:52:03.057Z,4.93
2023-02-17T17:54:36.195Z,4.22
2023-02-17T17:57:05.770Z,5.15
2023-02-17T17:59:35.219Z,4.57
2023-02-17T18:02:04.689Z,5.68
2023-02-17T18:04:34.163Z,4.97
2023-02-17T18:07:03.861Z,5.93
2023-02-17T18:09:38.915Z,4.80
2023-02-17T18:12:11.210Z,5.63
2023-02-17T18:14:41.869Z,4.90
2023-02-17T18:17:11.396Z,5.13
2023-02-17T18:19:40.923Z,4.90
2023-02-17T18:22:10.901Z,5.70
2023-02-17T18:24:42.932Z,5.15
2023-02-17T18:27:12.400Z,4.13
2023-02-17T18:29:41.847Z,6.05
2023-02-17T18:32:11.522Z,7.55
2023-02-17T18:34:41.046Z,5.65
2023-02-17T18:37:10.602Z,5.15
2023-02-17T18:39:40.048Z,5.35
2023-02-17T18:42:12.211Z,8.10
2023-02-17T18:44:41.693Z,15.95
2023-02-17T18:47:11.168Z,7.95
2023-02-17T18:49:40.635Z,7.95
2023-02-17T18:52:10.097Z,7.55
2023-02-17T18:54:44.224Z,5.70
2023-02-17T18:57:16.301Z,7.38
2023-02-17T18:59:46.045Z,7.95
2023-02-17T19:02:15.603Z,6.13
2023-02-17T19:04:45.042Z,6.32
2023-02-17T19:07:14.539Z,7.32
2023-02-17T19:09:44.916Z,6.05
2023-02-17T19:12:16.953Z,7.45
2023-02-17T19:14:46.480Z,9.50
2023-02-17T19:17:18.383Z,9.68
2023-02-17T19:19:48.054Z,8.50
2023-02-17T19:22:17.537Z,9.50
2023-02-17T19:24:47.099Z,9.68
2023-02-17T19:27:19.208Z,10.43
2023-02-17T19:29:48.865Z,7.65
2023-02-17T19:32:18.398Z,9.15
2023-02-17T19:34:47.884Z,7.90
2023-02-17T19:37:17.376Z,8.32
2023-02-17T19:39:46.854Z,8.18
2023-02-17T19:42:18.877Z,7.57
2023-02-17T19:44:48.452Z,6.63
2023-02-17T19:47:17.962Z,7.88
2023-02-17T19:49:47.414Z,7.45
2023-02-17T19:52:17.061Z,7.95
2023-02-17T19:54:46.870Z,7.45
2023-02-17T19:57:20.047Z,7.95
2023-02-17T19:59:49.479Z,7.15
2023-02-17T20:02:19.091Z,7.28
2023-02-17T20:04:48.612Z,8.38
2023-02-17T20:07:18.072Z,7.80
2023-02-17T20:09:47.594Z,7.13
2023-02-17T20:12:21.676Z,7.57
2023-02-17T20:14:51.177Z,7.05
2023-02-17T20:17:20.633Z,7.05
2023-02-17T20:19:50.113Z,7.00
2023-02-17T20:22:19.597Z,9.13
2023-02-17T20:24:49.060Z,6.45
2023-02-17T20:27:21.558Z,7.57
2023-02-17T20:29:51.171Z,8.73
2023-02-17T20:32:20.761Z,8.13
2023-02-17T20:34:52.594Z,8.32
2023-02-17T20:37:22.195Z,9.63
2023-02-17T20:39:51.679Z,8.35
2023-02-17T20:42:23.743Z,7.45
2023-02-17T20:44:54.518Z,8.32
2023-02-17T20:47:24.001Z,7.65
2023-02-17T20:49:53.486Z,7.75
2023-02-17T20:52:22.954Z,6.57
2023-02-17T20:54:52.470Z,6.82
2023-02-17T20:57:24.507Z,8.95
2023-02-17T20:59:53.985Z,8.50
2023-02-17T21:02:23.540Z,7.50
2023-02-17T21:04:53.391Z,7.57
2023-02-17T21:07:22.868Z,7.80
2023-02-17T21:09:52.342Z,10.27
2023-02-17T21:12:24.408Z,8.48
2023-02-17T21:14:53.919Z,10.32
2023-02-17T21:17:23.380Z,9.07
2023-02-17T21:19:52.830Z,8.98
2023-02-17T21:22:22.371Z,11.00
2023-02-17T21:24:52.051Z,10.88
2023-02-17T21:27:24.119Z,10.23
2023-02-17T21:29:53.576Z,8.95
2023-02-17T21:32:23.128Z,11.57
2023-02-17T21:34:52.630Z,9.38
2023-02-17T21:37:22.275Z,9.50
2023-02-17T21:39:51.781Z,9.50
2023-02-17T21:42:48.431Z,9.23
2023-02-17T21:45:15.620Z,8.50
2023-02-17T21:47:45.747Z,9.40
2023-02-17T21:50:15.429Z,8.33
2023-02-17T21:52:44.916Z,8.65
2023-02-17T21:55:14.380Z,7.68
2023-02-17T21:57:46.483Z,8.73
2023-02-17T22:00:17.817Z,8.82
2023-02-17T22:02:47.353Z,8.68
2023-02-17T22:05:17.170Z,7.97
2023-02-17T22:07:46.641Z,9.65
2023-02-17T22:10:16.657Z,7.63
2023-02-17T22:12:48.704Z,7.10
2023-02-17T22:15:18.815Z,7.72
2023-02-17T22:17:48.279Z,7.10
2023-02-17T22:20:19.305Z,7.47
2023-02-17T22:25:18.123Z,7.65
2023-02-17T22:27:50.608Z,7.15
2023-02-17T22:30:20.488Z,7.20
2023-02-17T22:32:49.911Z,6.35
2023-02-17T22:35:20.987Z,7.00
2023-02-17T22:37:50.497Z,6.88
2023-02-17T22:40:20.445Z,6.20
2023-02-17T22:42:52.521Z,7.18
2023-02-17T22:45:22.015Z,6.22
2023-02-17T22:47:51.469Z,6.30
2023-02-17T22:50:20.969Z,6.68
2023-02-17T22:52:50.482Z,6.32
2023-02-17T22:55:20.085Z,5.97
2023-02-17T22:57:52.147Z,6.60
2023-02-17T23:00:22.013Z,6.50
2023-02-17T23:02:54.260Z,7.60
2023-02-17T23:05:23.703Z,6.63
2023-02-17T23:07:54.200Z,7.13
2023-02-17T23:10:23.669Z,7.28
2023-02-17T23:12:55.745Z,6.68
2023-02-17T23:15:39.294Z,7.55
2023-02-17T23:18:09.392Z,7.35
2023-02-17T23:20:40.236Z,7.53
2023-02-17T23:23:09.832Z,7.40
2023-02-17T23:25:41.199Z,6.18
2023-02-17T23:28:13.255Z,6.80
2023-02-17T23:30:43.509Z,6.35
2023-02-17T23:33:13.060Z,6.82
2023-02-17T23:35:44.845Z,6.43
2023-02-17T23:38:14.550Z,7.38
2023-02-17T23:40:44.024Z,6.53
2023-02-17T23:43:16.140Z,6.95
2023-02-17T23:45:45.572Z,6.28
2023-02-17T23:48:15.220Z,6.47
2023-02-17T23:50:44.706Z,6.93
2023-02-17T23:53:15.421Z,7.20
2023-02-17T23:55:44.895Z,6.40
2023-02-17T23:58:17.888Z,5.75
